Time;durP1;ratioP1;P1;durP2;ratioP2;P2;SDS_P1;SDS_P2;PMS_P1;PMS_P2;Temp;Humidity;BMP_temperature;BMP_pressure;BME280_temperature;BME280_humidity;BME280_pressure;Samples;Min_cycle;Max_cycle;Signal;HPM_P1;HPM_P2
2023/07/01 00:02:00;;;;;;;;;1.00;1.00;;;;;20.73;53.46;100870.88;5082589;27;48448;-53
2023/07/01 00:04:27;;;;;;;;;1.00;1.00;;;;;20.74;54.53;100872.59;5080289;27;45724;-53
2023/07/01 00:06:53;;;;;;;;;2.67;1.67;;;;;20.76;54.94;100870.63;5077050;27;45485;-50
2023/07/01 00:09:18;;;;;;;;;1.67;1.00;;;;;20.79;54.71;100864.91;5080162;27;46933;-53
2023/07/01 00:11:44;;;;;;;;;1.00;1.00;;;;;20.82;55.34;100865.50;5077678;27;45781;-53
2023/07/01 00:14:09;;;;;;;;;2.00;1.50;;;;;20.82;54.01;100859.25;5088195;27;53559;-53
2023/07/01 00:16:34;;;;;;;;;3.00;3.00;;;;;20.75;55.53;100855.38;5075833;27;45770;-54
2023/07/01 00:19:00;;;;;;;;;7.00;2.67;;;;;20.76;54.98;100862.50;5072747;27;54242;-54
2023/07/01 00:21:25;;;;;;;;;2.33;2.33;;;;;20.70;55.41;100853.09;5075314;27;45598;-50
2023/07/01 00:23:50;;;;;;;;;3.00;2.00;;;;;20.61;57.29;100852.09;5075642;27;52339;-53
2023/07/01 00:26:16;;;;;;;;;2.00;2.00;;;;;20.46;57.06;100853.50;5068954;27;62379;-53
2023/07/01 00:28:41;;;;;;;;;2.00;2.00;;;;;20.42;58.98;100850.19;5050073;28;64755;-52
2023/07/01 00:31:06;;;;;;;;;2.00;2.00;;;;;20.38;57.14;100835.28;5074903;27;46050;-53
2023/07/01 00:33:32;;;;;;;;;1.67;1.67;;;;;20.38;58.02;100842.53;5073531;27;64768;-53
2023/07/01 00:35:57;;;;;;;;;1.00;1.00;;;;;20.35;57.25;100838.28;5076250;27;45995;-53
2023/07/01 00:38:22;;;;;;;;;2.00;1.33;;;;;20.37;57.51;100833.56;5070834;27;45696;-53
2023/07/01 00:40:48;;;;;;;;;1.00;1.00;;;;;20.41;57.58;100824.19;5079008;27;48464;-54
2023/07/01 00:43:13;;;;;;;;;2.33;1.00;;;;;20.40;57.48;100819.78;5073224;27;45705;-53
2023/07/01 00:45:39;;;;;;;;;3.00;1.00;;;;;20.40;57.61;100825.19;5071597;27;45367;-54
2023/07/01 00:48:04;;;;;;;;;2.00;2.00;;;;;20.40;59.83;100819.78;5071977;27;65178;-54
2023/07/01 00:50:29;;;;;;;;;2.00;2.00;;;;;20.37;58.92;100821.91;5068548;27;47035;-54
2023/07/01 00:52:55;;;;;;;;;1.67;1.67;;;;;20.40;58.84;100811.69;5069034;27;70022;-53
2023/07/01 00:55:21;;;;;;;;;2.33;2.33;;;;;20.42;59.29;100812.38;5068671;27;67940;-55
2023/07/01 00:57:46;;;;;;;;;2.67;1.00;;;;;20.45;58.19;100811.25;5073864;27;45422;-54
2023/07/01 01:00:13;;;;;;;;;1.00;1.00;;;;;20.46;58.98;100800.31;5068795;27;72564;-53
2023/07/01 01:02:45;;;;;;;;;2.00;2.00;;;;;20.51;59.14;100802.59;5069178;27;48821;-53
2023/07/01 01:05:15;;;;;;;;;1.00;1.00;;;;;20.52;59.80;100803.44;5071086;27;46074;-54
2023/07/01 01:07:51;;;;;;;;;1.67;1.67;;;;;20.42;59.78;100809.69;5071568;27;45516;-54
2023/07/01 01:10:23;;;;;;;;;2.00;1.67;;;;;20.38;60.02;100802.03;5072016;27;47022;-53
2023/07/01 01:12:54;;;;;;;;;1.67;1.67;;;;;20.38;59.32;100800.16;5071763;27;64484;-54
2023/07/01 01:15:20;;;;;;;;;2.67;2.00;;;;;20.41;61.29;100793.63;5069234;27;45574;-54
2023/07/01 01:17:47;;;;;;;;;1.33;1.33;;;;;20.40;61.75;100787.38;5076658;27;61093;-54
2023/07/01 01:20:16;;;;;;;;;3.00;1.33;;;;;20.42;61.07;100795.34;5079358;27;75452;-53
2023/07/01 01:22:44;;;;;;;;;2.00;2.00;;;;;20.39;60.85;100792.91;5073157;27;45513;-54
2023/07/01 01:25:15;;;;;;;;;2.00;2.00;;;;;20.30;62.94;100781.13;5068951;27;45713;-54
2023/07/01 01:27:41;;;;;;;;;3.00;3.00;;;;;20.15;64.25;100788.75;5068182;28;46369;-54
2023/07/01 01:30:07;;;;;;;;;1.67;1.67;;;;;20.09;64.65;100776.69;5066885;27;46382;-53
2023/07/01 01:32:36;;;;;;;;;3.67;1.00;;;;;20.00;63.96;100772.97;5076367;27;45614;-52
2023/07/01 01:35:02;;;;;;;;;2.00;1.00;;;;;19.94;63.92;100765.41;5077798;27;45564;-54
2023/07/01 01:37:39;;;;;;;;;1.67;1.67;;;;;19.84;64.08;100764.53;5077159;27;45592;-53
2023/07/01 01:40:13;;;;;;;;;2.00;1.00;;;;;19.74;64.56;100763.66;5081127;27;46213;-54
2023/07/01 01:42:42;;;;;;;;;1.00;1.00;;;;;19.72;65.65;100761.06;5079525;27;45711;-54
2023/07/01 01:45:08;;;;;;;;;1.00;1.00;;;;;19.72;64.73;100755.66;5066794;27;45486;-52
2023/07/01 01:47:33;;;;;;;;;2.33;2.33;;;;;19.74;65.41;100752.84;5073587;27;45535;-54
2023/07/01 01:50:02;;;;;;;;;1.00;1.00;;;;;19.76;66.70;100758.94;5095699;27;67234;-54
2023/07/01 01:52:28;;;;;;;;;1.00;1.00;;;;;19.75;65.31;100750.00;5081982;27;45534;-54
2023/07/01 01:54:55;;;;;;;;;2.00;2.00;;;;;19.80;65.64;100750.44;5075927;27;67921;-54
2023/07/01 01:57:21;;;;;;;;;1.67;1.67;;;;;19.82;65.61;100743.09;5081933;27;45541;-53
2023/07/01 01:59:47;;;;;;;;;1.00;1.00;;;;;19.84;64.40;100748.34;5059723;27;46956;-54
2023/07/01 02:02:12;;;;;;;;;2.00;2.00;;;;;19.85;65.85;100744.66;5074862;27;70505;-54
2023/07/01 02:04:37;;;;;;;;;2.00;2.00;;;;;19.85;66.25;100741.94;5093643;27;61044;-54
2023/07/01 02:07:03;;;;;;;;;2.00;2.00;;;;;19.86;66.32;100737.44;5080489;27;45619;-55
2023/07/01 02:09:28;;;;;;;;;1.33;0.33;;;;;19.85;65.98;100725.75;5071569;27;46908;-54
2023/07/01 02:11:55;;;;;;;;;1.00;1.00;;;;;19.88;66.54;100727.31;5073435;27;45568;-53
2023/07/01 02:14:20;;;;;;;;;1.00;1.00;;;;;19.90;66.53;100717.25;5074768;27;49298;-54
2023/07/01 02:16:45;;;;;;;;;1.67;1.67;;;;;19.89;66.35;100719.09;5079981;27;46137;-55
2023/07/01 02:19:11;;;;;;;;;1.67;1.67;;;;;19.91;67.24;100717.13;5077458;27;67355;-55
2023/07/01 02:21:36;;;;;;;;;4.00;2.33;;;;;19.93;66.30;100715.16;5078100;27;45437;-54
2023/07/01 02:24:02;;;;;;;;;1.33;1.00;;;;;19.91;66.70;100709.03;5077061;27;46092;-54
2023/07/01 02:26:27;;;;;;;;;1.00;1.00;;;;;19.91;65.55;100705.47;5074838;27;45523;-54
2023/07/01 02:28:52;;;;;;;;;1.00;0.00;;;;;19.88;66.57;100712.00;5077943;27;46576;-54
2023/07/01 02:31:18;;;;;;;;;1.00;1.00;;;;;19.87;67.32;100699.50;5080937;27;45582;-54
2023/07/01 02:33:49;;;;;;;;;2.33;1.00;;;;;19.91;66.77;100700.91;5080388;27;45450;-53
2023/07/01 02:36:14;;;;;;;;;1.00;1.00;;;;;19.88;68.87;100703.91;5071359;27;45634;-53
2023/07/01 02:38:39;;;;;;;;;1.33;1.33;;;;;19.84;67.47;100697.06;5078466;27;68279;-53
2023/07/01 02:41:05;;;;;;;;;1.00;1.00;;;;;19.83;67.27;100690.81;5078203;27;58760;-53
2023/07/01 02:43:30;;;;;;;;;1.00;1.00;;;;;19.84;67.60;100688.97;5080964;27;46158;-52
2023/07/01 02:45:55;;;;;;;;;0.00;0.00;;;;;19.85;67.31;100685.28;5078278;27;45698;-54
2023/07/01 02:48:21;;;;;;;;;1.00;1.00;;;;;19.88;67.23;100686.84;5077728;27;45445;-54
2023/07/01 02:50:46;;;;;;;;;1.00;1.00;;;;;19.89;66.65;100680.47;5079542;27;68390;-51
2023/07/01 02:53:11;;;;;;;;;1.00;1.00;;;;;19.85;69.28;100670.94;5079680;27;66045;-54
2023/07/01 02:55:37;;;;;;;;;3.00;2.00;;;;;19.78;67.48;100673.31;5091562;27;46116;-53
2023/07/01 02:58:02;;;;;;;;;1.00;1.00;;;;;19.74;67.60;100683.53;5076946;27;64365;-53
2023/07/01 03:00:27;;;;;;;;;0.00;0.00;;;;;19.70;68.26;100682.13;5076629;27;68290;-53
2023/07/01 03:02:53;;;;;;;;;2.00;1.67;;;;;19.71;68.48;100682.94;5072601;27;45623;-54
2023/07/01 03:05:21;;;;;;;;;1.33;1.33;;;;;19.75;68.01;100681.69;5074990;27;45585;-52
2023/07/01 03:07:47;;;;;;;;;2.00;1.00;;;;;19.80;67.75;100687.50;5074347;27;47922;-54
2023/07/01 03:10:13;;;;;;;;;0.00;0.00;;;;;19.78;68.02;100670.63;5074189;27;45506;-53
2023/07/01 03:12:38;;;;;;;;;1.00;1.00;;;;;19.77;68.57;100669.75;5076525;27;45754;-54
2023/07/01 03:15:04;;;;;;;;;1.33;1.33;;;;;19.82;68.49;100666.69;5084437;27;68016;-54
2023/07/01 03:17:29;;;;;;;;;0.00;0.00;;;;;19.86;68.81;100662.69;5072606;27;45749;-53
2023/07/01 03:19:54;;;;;;;;;1.00;1.00;;;;;19.87;68.63;100655.44;5073125;27;60652;-52
2023/07/01 03:22:20;;;;;;;;;1.00;1.00;;;;;19.90;68.23;100657.88;5078476;27;45499;-54
2023/07/01 03:24:45;;;;;;;;;1.33;1.33;;;;;19.88;69.23;100670.66;5093135;27;45536;-55
2023/07/01 03:27:10;;;;;;;;;1.00;1.00;;;;;19.85;67.99;100652.06;5066944;27;65362;-54
2023/07/01 03:29:36;;;;;;;;;1.00;1.00;;;;;19.82;68.76;100667.53;5088272;27;50776;-54
2023/07/01 03:32:03;;;;;;;;;0.00;0.00;;;;;19.85;68.18;100661.00;5085969;27;46132;-54
2023/07/01 03:34:29;;;;;;;;;1.00;1.00;;;;;19.83;69.79;100657.59;5077639;27;48405;-53
2023/07/01 03:36:54;;;;;;;;;1.00;1.00;;;;;19.83;69.00;100649.50;5088292;27;47068;-54
2023/07/01 03:39:19;;;;;;;;;1.00;1.00;;;;;19.84;69.46;100648.50;5077680;27;66974;-54
2023/07/01 03:41:45;;;;;;;;;1.00;1.00;;;;;19.84;69.55;100645.78;5080574;27;45877;-53
2023/07/01 03:44:11;;;;;;;;;1.00;0.67;;;;;19.82;70.49;100645.09;5078399;27;45549;-54
2023/07/01 03:46:36;;;;;;;;;0.00;0.00;;;;;19.77;70.78;100647.31;5078435;27;45628;-53
2023/07/01 03:49:01;;;;;;;;;1.00;1.00;;;;;19.75;69.52;100654.69;5068184;27;62090;-54
2023/07/01 03:51:29;;;;;;;;;0.67;0.00;;;;;19.72;70.60;100642.34;5076435;27;48614;-54
2023/07/01 03:53:55;;;;;;;;;2.00;1.00;;;;;19.72;70.75;100641.50;5068186;27;45831;-54
2023/07/01 03:56:21;;;;;;;;;0.33;0.33;;;;;19.72;71.58;100631.53;5079407;27;45690;-52
2023/07/01 03:58:46;;;;;;;;;1.00;1.00;;;;;19.74;70.90;100629.56;5075111;27;54996;-54
2023/07/01 04:01:15;;;;;;;;;1.00;1.00;;;;;19.75;71.68;100625.88;5075408;27;45525;-53
2023/07/01 04:03:41;;;;;;;;;0.00;0.00;;;;;19.79;72.34;100631.84;5069858;27;45571;-54
2023/07/01 04:06:06;;;;;;;;;1.00;1.00;;;;;19.81;71.43;100624.47;5071777;27;46645;-53
2023/07/01 04:08:31;;;;;;;;;1.00;1.00;;;;;19.81;71.59;100627.16;5064789;27;46175;-54
2023/07/01 04:10:57;;;;;;;;;0.00;0.00;;;;;19.80;71.36;100615.53;5072773;27;59916;-54
2023/07/01 04:13:22;;;;;;;;;0.67;0.67;;;;;19.82;71.78;100624.34;5066351;27;68513;-54
2023/07/01 04:15:47;;;;;;;;;2.00;0.67;;;;;19.81;71.70;100619.94;5074572;27;73167;-54
2023/07/01 04:18:13;;;;;;;;;1.00;1.00;;;;;19.81;72.03;100619.94;5071808;27;47604;-55
2023/07/01 04:20:40;;;;;;;;;0.00;0.00;;;;;19.82;72.30;100620.81;5080694;27;63344;-54
2023/07/01 04:23:05;;;;;;;;;0.00;0.00;;;;;19.80;72.48;100622.75;5068089;27;45782;-54
2023/07/01 04:25:30;;;;;;;;;1.33;0.00;;;;;19.80;72.73;100620.94;5066008;27;74870;-54
2023/07/01 04:27:56;;;;;;;;;0.00;0.00;;;;;19.74;73.08;100618.78;5075047;27;45531;-53
2023/07/01 04:30:23;;;;;;;;;0.00;0.00;;;;;19.71;73.24;100615.50;5074741;27;45452;-53
2023/07/01 04:32:48;;;;;;;;;0.00;0.00;;;;;19.72;73.78;100614.53;5075147;27;45661;-54
2023/07/01 04:35:14;;;;;;;;;0.00;0.00;;;;;19.69;73.82;100617.50;5077485;27;55785;-55
2023/07/01 04:37:40;;;;;;;;;0.00;0.00;;;;;19.64;73.69;100612.53;5074445;27;45622;-56
2023/07/01 04:40:06;;;;;;;;;1.00;1.00;;;;;19.63;74.05;100617.06;5077686;27;46800;-53
2023/07/01 04:42:33;;;;;;;;;0.00;0.00;;;;;19.65;74.52;100611.53;5076131;27;45886;-53
2023/07/01 04:44:58;;;;;;;;;1.00;1.00;;;;;19.71;74.18;100610.09;5075635;27;45750;-54
2023/07/01 04:47:24;;;;;;;;;0.00;0.00;;;;;19.71;75.15;100610.97;5080240;27;45469;-52
2023/07/01 04:49:52;;;;;;;;;0.33;0.00;;;;;19.72;73.83;100606.44;5073995;27;45504;-53
2023/07/01 04:52:24;;;;;;;;;0.00;0.00;;;;;19.74;73.48;100605.28;5067250;27;46511;-53
2023/07/01 04:54:50;;;;;;;;;0.33;0.33;;;;;19.75;75.54;100604.31;5070702;27;46572;-54
2023/07/01 04:57:15;;;;;;;;;0.00;0.00;;;;;19.75;74.71;100609.69;5067586;27;44982;-54
2023/07/01 04:59:41;;;;;;;;;0.00;0.00;;;;;19.78;73.23;100603.16;5072773;27;45381;-53
2023/07/01 05:02:06;;;;;;;;;2.00;0.00;;;;;19.80;74.37;100596.63;5067338;27;45485;-54
2023/07/01 05:04:32;;;;;;;;;0.00;0.00;;;;;19.85;74.35;100592.69;5072345;27;70725;-54
2023/07/01 05:06:57;;;;;;;;;0.00;0.00;;;;;19.90;74.52;100593.13;5072067;27;45561;-53
2023/07/01 05:09:22;;;;;;;;;0.67;0.67;;;;;19.94;74.59;100600.78;5069854;27;56726;-54
2023/07/01 05:11:48;;;;;;;;;1.00;1.00;;;;;19.96;73.49;100592.56;5074476;27;66689;-54
2023/07/01 05:14:13;;;;;;;;;0.00;0.00;;;;;19.98;73.11;100595.94;5070382;27;73285;-53
2023/07/01 05:16:39;;;;;;;;;1.00;1.00;;;;;20.00;74.11;100596.66;5072985;27;45506;-53
2023/07/01 05:19:04;;;;;;;;;1.33;0.00;;;;;20.03;73.88;100603.63;5071965;27;45656;-53
2023/07/01 05:21:32;;;;;;;;;1.00;0.00;;;;;20.03;73.71;100599.06;5071068;27;65264;-53
2023/07/01 05:23:57;;;;;;;;;0.00;0.00;;;;;20.04;73.55;100597.22;5074947;27;46499;-53
2023/07/01 05:26:23;;;;;;;;;0.33;0.00;;;;;20.01;73.15;100592.94;5069075;27;66834;-53
2023/07/01 05:28:48;;;;;;;;;0.00;0.00;;;;;19.99;73.29;100595.78;5081063;27;48360;-53
2023/07/01 05:31:14;;;;;;;;;0.00;0.00;;;;;19.97;75.34;100586.13;5075736;27;58319;-53
2023/07/01 05:33:39;;;;;;;;;0.00;0.00;;;;;19.99;74.98;100590.41;5074558;27;47176;-53
2023/07/01 05:36:05;;;;;;;;;0.33;0.33;;;;;19.98;76.34;100594.09;5068008;27;60117;-52
2023/07/01 05:38:30;;;;;;;;;0.00;0.00;;;;;19.96;76.60;100593.41;5072468;27;46104;-54
2023/07/01 05:40:55;;;;;;;;;1.00;1.00;;;;;19.94;75.89;100600.78;5070668;27;54395;-55
2023/07/01 05:43:21;;;;;;;;;0.00;0.00;;;;;19.98;75.19;100596.78;5068094;27;46222;-54
2023/07/01 05:45:46;;;;;;;;;0.50;0.50;;;;;20.02;75.25;100591.13;5072028;27;45721;-55
2023/07/01 05:48:11;;;;;;;;;0.00;0.00;;;;;20.06;75.26;100592.53;5072077;27;45521;-54
2023/07/01 05:50:38;;;;;;;;;1.00;1.00;;;;;20.12;75.82;100589.25;5072742;27;45559;-55
2023/07/01 05:53:04;;;;;;;;;1.00;1.00;;;;;20.16;75.90;100591.50;5072716;27;45599;-53
2023/07/01 05:55:29;;;;;;;;;0.00;0.00;;;;;20.22;76.29;100590.09;5077469;27;54609;-54
2023/07/01 05:57:54;;;;;;;;;0.00;0.00;;;;;20.31;74.16;100585.66;5069141;27;45527;-53
2023/07/01 06:00:20;;;;;;;;;0.00;0.00;;;;;20.38;75.62;100592.19;5068720;27;61517;-53
2023/07/01 06:02:45;;;;;;;;;0.00;0.00;;;;;20.46;75.61;100595.00;5075055;27;46814;-53
2023/07/01 06:05:10;;;;;;;;;1.00;0.00;;;;;20.54;75.05;100594.28;5075182;27;70652;-54
2023/07/01 06:07:36;;;;;;;;;2.00;0.00;;;;;20.54;74.60;100591.56;5079085;27;45539;-53
2023/07/01 06:10:01;;;;;;;;;0.00;0.00;;;;;20.60;74.37;100596.41;5071651;27;46416;-53
2023/07/01 06:12:27;;;;;;;;;0.00;0.00;;;;;20.63;75.38;100593.38;5076710;27;47030;-55
2023/07/01 06:14:52;;;;;;;;;4.00;0.00;;;;;20.69;75.38;100599.22;5076568;27;69928;-54
2023/07/01 06:17:17;;;;;;;;;0.33;0.33;;;;;20.74;74.21;100592.41;5070322;27;62832;-51
2023/07/01 06:19:43;;;;;;;;;0.00;0.00;;;;;20.79;75.15;100598.22;5082187;27;54409;-52
2023/07/01 06:22:08;;;;;;;;;0.00;0.00;;;;;20.87;75.16;100592.06;5083477;27;57806;-54
2023/07/01 06:24:33;;;;;;;;;0.00;0.00;;;;;20.93;74.43;100587.91;5078967;27;62953;-54
2023/07/01 06:26:58;;;;;;;;;0.33;0.00;;;;;20.97;73.17;100590.16;5078022;27;45779;-54
2023/07/01 06:29:24;;;;;;;;;0.00;0.00;;;;;20.97;73.87;100584.75;5074438;27;56308;-54
2023/07/01 06:31:49;;;;;;;;;0.00;0.00;;;;;20.93;73.22;100586.06;5100108;27;45280;-54
2023/07/01 06:34:16;;;;;;;;;0.00;0.00;;;;;20.89;74.07;100592.75;5073213;27;61370;-53
2023/07/01 06:36:44;;;;;;;;;0.00;0.00;;;;;20.89;73.65;100573.00;5077578;27;45393;-51
2023/07/01 06:39:11;;;;;;;;;0.00;0.00;;;;;20.92;73.45;100572.69;5073480;27;45361;-54
2023/07/01 06:41:37;;;;;;;;;1.00;0.00;;;;;21.03;73.48;100582.44;5072367;27;46800;-53
2023/07/01 06:44:02;;;;;;;;;0.00;0.00;;;;;21.13;72.82;100578.72;5080856;27;45637;-53
2023/07/01 06:46:28;;;;;;;;;0.00;0.00;;;;;21.24;73.63;100577.63;5079507;27;45840;-53
2023/07/01 06:48:53;;;;;;;;;0.00;0.00;;;;;21.35;73.21;100573.03;5080148;27;45399;-53
2023/07/01 06:51:18;;;;;;;;;1.00;1.00;;;;;21.37;72.39;100579.97;5079879;27;73408;-54
2023/07/01 06:53:44;;;;;;;;;0.00;0.00;;;;;21.37;71.78;100576.41;5066559;28;45514;-54
2023/07/01 06:56:09;;;;;;;;;0.00;0.00;;;;;21.37;72.12;100571.00;5079614;27;45735;-52
2023/07/01 06:58:35;;;;;;;;;1.00;1.00;;;;;21.36;72.14;100582.84;5076453;27;45579;-54
2023/07/01 07:01:00;;;;;;;;;0.00;0.00;;;;;21.39;71.94;100582.53;5074616;28;46204;-55
2023/07/01 07:03:26;;;;;;;;;0.00;0.00;;;;;21.47;71.59;100585.31;5079962;27;45467;-54
2023/07/01 07:05:52;;;;;;;;;0.00;0.00;;;;;21.51;71.65;100581.31;5074485;27;45498;-54
2023/07/01 07:08:18;;;;;;;;;5.00;2.00;;;;;21.51;71.69;100585.88;5083003;27;45477;-52
2023/07/01 07:10:43;;;;;;;;;1.00;1.00;;;;;21.47;70.93;100590.72;5077986;27;48079;-53
2023/07/01 07:13:09;;;;;;;;;0.75;0.75;;;;;21.42;71.71;100580.38;5073442;27;45395;-53
2023/07/01 07:15:35;;;;;;;;;1.00;1.00;;;;;21.45;73.11;100581.94;5071185;27;45433;-54
2023/07/01 07:18:01;;;;;;;;;1.00;1.00;;;;;21.48;72.43;100593.31;5082480;27;45509;-54
2023/07/01 07:20:26;;;;;;;;;0.00;0.00;;;;;21.62;71.93;100580.28;5086174;27;46200;-52
2023/07/01 07:22:51;;;;;;;;;0.33;0.00;;;;;21.68;72.37;100581.50;5069834;27;45679;-53
2023/07/01 07:25:17;;;;;;;;;0.33;0.33;;;;;21.72;72.90;100577.47;5082100;27;61150;-54
2023/07/01 07:27:46;;;;;;;;;1.33;1.33;;;;;21.77;71.83;100580.56;5085260;27;45584;-53
2023/07/01 07:30:14;;;;;;;;;0.00;0.00;;;;;21.86;71.86;100582.34;5063180;28;45583;-70
2023/07/01 07:32:40;;;;;;;;;0.50;0.50;;;;;21.90;72.09;100586.44;5076193;27;45386;-68
2023/07/01 07:35:05;;;;;;;;;1.33;1.33;;;;;21.98;72.52;100580.25;5077974;28;56368;-68
2023/07/01 07:37:31;;;;;;;;;1.00;1.00;;;;;22.14;71.67;100579.53;5079359;27;45426;-68
2023/07/01 07:39:59;;;;;;;;;0.00;0.00;;;;;22.23;70.82;100578.56;5077186;27;47442;-68
2023/07/01 07:42:25;;;;;;;;;1.00;1.00;;;;;22.39;70.31;100586.00;5077678;27;45458;-68
2023/07/01 07:44:50;;;;;;;;;2.00;2.00;;;;;22.50;69.83;100579.44;5095064;27;45635;-68
2023/07/01 07:47:16;;;;;;;;;2.00;2.00;;;;;22.79;69.17;100572.84;5094377;27;45567;-68
2023/07/01 07:49:41;;;;;;;;;1.00;1.00;;;;;23.02;68.42;100577.69;5078582;27;68519;-68
2023/07/01 07:52:07;;;;;;;;;1.00;1.00;;;;;23.05;67.13;100577.34;5070824;27;71362;-68
2023/07/01 07:54:32;;;;;;;;;0.00;0.00;;;;;23.02;67.57;100578.50;5073608;27;45550;-75
2023/07/01 07:56:59;;;;;;;;;1.67;1.67;;;;;23.07;67.20;100573.44;5089386;27;45551;-75
2023/07/01 07:59:28;;;;;;;;;1.00;1.00;;;;;23.38;66.65;100567.47;5071141;27;46403;-74
2023/07/01 08:01:56;;;;;;;;;1.00;1.00;;;;;23.40;65.68;100564.59;5076841;27;45969;-74
2023/07/01 08:04:22;;;;;;;;;1.33;1.33;;;;;23.28;65.52;100573.06;5069720;27;45401;-74
2023/07/01 08:06:47;;;;;;;;;0.00;0.00;;;;;23.33;65.91;100564.41;5069261;27;45397;-71
2023/07/01 08:09:13;;;;;;;;;0.25;0.25;;;;;23.51;66.03;100561.56;5076861;27;45561;-52
2023/07/01 08:11:38;;;;;;;;;4.00;3.00;;;;;23.78;64.32;100562.28;5078179;27;63878;-61
2023/07/01 08:14:04;;;;;;;;;0.00;0.00;;;;;23.93;64.08;100571.47;5078595;27;45864;-50
2023/07/01 08:16:31;;;;;;;;;0.00;0.00;;;;;23.97;64.28;100568.41;5073995;27;45532;-58
2023/07/01 08:18:57;;;;;;;;;0.50;0.50;;;;;23.79;65.16;100577.53;5070110;27;47141;-64
2023/07/01 08:21:22;;;;;;;;;1.75;0.00;;;;;23.66;65.07;100588.06;5071216;28;45656;-68
2023/07/01 08:23:47;;;;;;;;;0.00;0.00;;;;;23.36;65.27;100609.34;5068945;27;62543;-57
2023/07/01 08:26:13;;;;;;;;;0.00;0.00;;;;;22.94;66.10;100609.19;5064748;27;45636;-60
2023/07/01 08:28:38;;;;;;;;;0.00;0.00;;;;;22.52;67.88;100618.09;5080371;27;45475;-53
2023/07/01 08:31:04;;;;;;;;;2.00;0.00;;;;;22.24;67.90;100620.91;5073781;27;69173;-53
2023/07/01 08:33:30;;;;;;;;;0.00;0.00;;;;;21.95;69.78;100616.63;5077840;27;45512;-73
2023/07/01 08:35:57;;;;;;;;;0.00;0.00;;;;;21.70;71.38;100618.22;5076151;28;45425;-70
2023/07/01 08:38:23;;;;;;;;;0.00;0.00;;;;;21.66;70.15;100608.72;5074967;27;46911;-56
2023/07/01 08:40:52;;;;;;;;;0.00;0.00;;;;;21.85;70.19;100607.72;5073084;27;45462;-58
2023/07/01 08:43:20;;;;;;;;;0.25;0.00;;;;;22.74;69.96;100605.00;5071412;27;45479;-58
2023/07/01 08:45:49;;;;;;;;;0.00;0.00;;;;;23.69;67.02;100604.84;5075384;27;45377;-58
2023/07/01 08:48:17;;;;;;;;;0.25;0.25;;;;;24.40;64.82;100607.09;5074601;27;45370;-58
2023/07/01 08:51:09;;;;;;;;;0.00;0.00;;;;;24.61;61.70;100609.25;5076942;28;45593;-54
2023/07/01 08:53:36;;;;;;;;;0.00;0.00;;;;;24.58;61.38;100602.28;5076727;27;45437;-51
2023/07/01 08:56:01;;;;;;;;;0.00;0.00;;;;;24.93;61.93;100600.19;5075277;27;45348;-52
2023/07/01 08:58:28;;;;;;;;;0.00;0.00;;;;;26.18;57.51;100592.13;5073205;27;46640;-57
2023/07/01 09:00:55;;;;;;;;;1.00;0.00;;;;;28.51;57.05;100587.75;5064628;27;45582;-51
2023/07/01 09:03:21;;;;;;;;;0.00;0.00;;;;;31.99;47.20;100581.34;5096779;27;45613;-60
2023/07/01 09:05:47;;;;;;;;;0.00;0.00;;;;;34.99;45.46;100582.03;5069165;27;45581;-56
2023/07/01 09:08:12;;;;;;;;;0.00;0.00;;;;;37.12;41.07;100588.03;5073702;27;74397;-57
2023/07/01 09:10:37;;;;;;;;;0.00;0.00;;;;;38.65;35.37;100586.88;5074112;27;56725;-60
2023/07/01 09:13:13;;;;;;;;;0.50;0.50;;;;;38.92;35.13;100585.09;5077967;27;45464;-59
2023/07/01 09:15:46;;;;;;;;;0.00;0.00;;;;;39.66;32.52;100588.66;5071531;27;45384;-51
2023/07/01 09:18:22;;;;;;;;;0.00;0.00;;;;;40.12;31.23;100585.06;5067478;27;46594;-51
2023/07/01 09:20:51;;;;;;;;;0.00;0.00;;;;;41.13;31.29;100587.00;5068839;28;45501;-55
2023/07/01 09:23:26;;;;;;;;;0.00;0.00;;;;;40.37;30.05;100586.13;5074186;27;45417;-57
2023/07/01 09:25:52;;;;;;;;;0.00;0.00;;;;;38.74;29.30;100576.13;5070580;27;45561;-57
2023/07/01 09:28:37;;;;;;;;;0.00;0.00;;;;;36.79;32.37;100587.03;5064024;27;45468;-56
2023/07/01 09:31:04;;;;;;;;;0.00;0.00;;;;;34.83;32.76;100596.59;5075977;27;45499;-60
2023/07/01 09:33:30;;;;;;;;;0.00;0.00;;;;;32.70;34.65;100599.50;5073600;27;45632;-48
2023/07/01 09:36:01;;;;;;;;;0.00;0.00;;;;;30.87;37.29;100600.91;5075106;28;45543;-50
2023/07/01 09:38:26;;;;;;;;;0.00;0.00;;;;;29.44;38.24;100602.13;5075630;27;45463;-52
2023/07/01 09:40:52;;;;;;;;;0.00;0.00;;;;;28.52;40.55;100599.53;5065248;28;45363;-56
2023/07/01 09:43:19;;;;;;;;;0.00;0.00;;;;;27.92;41.38;100597.13;5070074;27;45468;-52
2023/07/01 09:45:57;;;;;;;;;0.00;0.00;;;;;27.71;42.30;100598.00;5079530;27;45927;-55
2023/07/01 09:48:23;;;;;;;;;0.00;0.00;;;;;27.87;42.31;100595.00;5077733;27;45529;-57
2023/07/01 09:50:50;;;;;;;;;1.00;0.00;;;;;28.67;42.48;100591.25;5073370;27;46882;-57
2023/07/01 09:53:22;;;;;;;;;0.00;0.00;;;;;30.25;40.35;100589.41;5070567;27;45622;-56
2023/07/01 09:55:49;;;;;;;;;0.00;0.00;;;;;32.22;38.08;100582.66;5073343;28;45362;-57
2023/07/01 09:58:17;;;;;;;;;0.00;0.00;;;;;33.70;37.21;100586.41;5100092;27;48249;-51
2023/07/01 10:00:44;;;;;;;;;0.00;0.00;;;;;34.21;34.18;100595.16;5100601;27;45441;-50
2023/07/01 10:03:10;;;;;;;;;0.00;0.00;;;;;33.69;34.78;100581.97;5088075;27;45405;-55
2023/07/01 10:05:36;;;;;;;;;0.00;0.00;;;;;32.71;34.54;100577.28;5082416;27;45944;-50
2023/07/01 10:08:02;;;;;;;;;0.50;0.50;;;;;32.08;35.54;100590.13;5084226;27;45843;-56
2023/07/01 10:10:27;;;;;;;;;0.00;0.00;;;;;31.34;36.42;100587.00;5075857;27;45419;-50
2023/07/01 10:12:54;;;;;;;;;0.00;0.00;;;;;30.61;37.14;100585.38;5067593;27;67462;-58
2023/07/01 10:15:25;;;;;;;;;0.00;0.00;;;;;29.96;37.49;100584.16;5074275;27;45874;-57
2023/07/01 10:17:52;;;;;;;;;0.00;0.00;;;;;29.73;37.99;100584.50;5099455;27;45667;-56
2023/07/01 10:20:38;;;;;;;;;0.00;0.00;;;;;29.53;37.95;100584.47;5076801;27;45716;-54
2023/07/01 10:23:03;;;;;;;;;0.00;0.00;;;;;29.42;37.95;100587.81;5064436;28;49114;-54
2023/07/01 10:25:36;;;;;;;;;0.00;0.00;;;;;29.29;38.52;100586.72;5087062;27;45720;-58
2023/07/01 10:28:01;;;;;;;;;0.00;0.00;;;;;29.29;37.65;100588.63;5084310;27;46350;-57
2023/07/01 10:30:46;;;;;;;;;0.00;0.00;;;;;29.26;37.17;100587.09;5080295;27;45349;-56
2023/07/01 10:33:27;;;;;;;;;0.75;0.75;;;;;30.18;37.97;100589.41;5072875;27;45486;-59
2023/07/01 10:36:06;;;;;;;;;2.00;0.75;;;;;30.97;36.14;100581.25;5072865;27;45476;-53
2023/07/01 10:38:33;;;;;;;;;0.00;0.00;;;;;31.10;36.41;100580.41;5063529;28;46346;-54
2023/07/01 10:40:59;;;;;;;;;0.75;0.75;;;;;31.06;35.93;100577.22;5076123;27;45373;-55
2023/07/01 10:43:31;;;;;;;;;0.00;0.00;;;;;30.90;35.59;100586.78;5071236;27;45407;-48
2023/07/01 10:46:07;;;;;;;;;0.00;0.00;;;;;30.85;35.89;100587.41;5082693;27;45455;-57
2023/07/01 10:48:33;;;;;;;;;0.00;0.00;;;;;30.73;36.21;100569.09;5072435;27;45371;-57
2023/07/01 10:51:06;;;;;;;;;2.50;0.50;;;;;31.32;36.08;100586.41;5075702;27;45530;-53
2023/07/01 10:53:58;;;;;;;;;2.00;0.00;;;;;32.06;34.05;100583.16;5073597;27;46019;-59
2023/07/01 10:56:24;;;;;;;;;0.75;0.75;;;;;31.67;33.73;100575.84;5071284;27;45488;-51
2023/07/01 10:59:18;;;;;;;;;0.50;0.50;;;;;31.11;33.89;100566.44;5084074;27;45566;-55
2023/07/01 11:01:45;;;;;;;;;1.75;1.75;;;;;30.46;34.66;100575.47;5077772;27;45425;-57
2023/07/01 11:04:11;;;;;;;;;0.00;0.00;;;;;30.56;35.07;100565.97;5067004;28;45670;-58
2023/07/01 11:06:50;;;;;;;;;0.50;0.50;;;;;30.83;35.81;100569.47;5074419;27;45555;-49
2023/07/01 11:09:27;;;;;;;;;1.50;1.00;;;;;31.72;34.65;100571.59;5066122;27;45842;-48
2023/07/01 11:11:53;;;;;;;;;2.00;0.75;;;;;31.86;34.38;100577.84;5092261;27;45581;-53
2023/07/01 11:14:19;;;;;;;;;0.00;0.00;;;;;31.58;34.09;100570.84;5070836;27;45760;-53
2023/07/01 11:16:44;;;;;;;;;0.25;0.25;;;;;30.87;34.69;100573.47;5054842;28;45502;-53
2023/07/01 11:19:10;;;;;;;;;0.00;0.00;;;;;29.96;35.48;100575.06;5089707;27;47351;-58
2023/07/01 11:21:36;;;;;;;;;0.25;0.00;;;;;29.02;36.41;100583.00;5072969;27;45858;-58
2023/07/01 11:24:07;;;;;;;;;0.00;0.00;;;;;28.26;37.66;100592.81;5078685;27;45521;-58